createdAt,value
2018-09-25T00:01:19.931Z,8.27
2018-09-25T00:03:54.218Z,8.64
2018-09-25T00:06:29.614Z,8.68
2018-09-25T00:09:04.073Z,8.81
2018-09-25T00:11:38.409Z,8.76
2018-09-25T00:14:12.851Z,8.47
2018-09-25T00:16:47.149Z,8.27
2018-09-25T00:19:21.853Z,8.22
2018-09-25T00:21:56.222Z,8.23
2018-09-25T00:24:30.549Z,8.42
2018-09-25T00:27:06.326Z,8.19
2018-09-25T00:29:40.327Z,8.54
2018-09-25T00:32:15.579Z,8.24
2018-09-25T00:34:50.000Z,8.20
2018-09-25T00:37:25.142Z,8.08
2018-09-25T00:40:00.263Z,8.01
2018-09-25T00:42:34.904Z,7.97
2018-09-25T00:45:11.014Z,7.92
2018-09-25T00:47:46.440Z,8.01
2018-09-25T00:50:20.590Z,8.04
2018-09-25T00:52:54.856Z,8.08
2018-09-25T00:55:29.159Z,7.97
2018-09-25T00:58:04.290Z,7.89
2018-09-25T01:00:38.923Z,8.01
2018-09-25T01:03:13.278Z,7.89
2018-09-25T01:05:47.632Z,7.85
2018-09-25T01:08:22.175Z,7.91
2018-09-25T01:10:57.079Z,7.90
2018-09-25T01:13:31.120Z,7.86
2018-09-25T01:16:05.682Z,7.92
2018-09-25T01:18:39.725Z,7.99
2018-09-25T01:21:14.161Z,8.06
2018-09-25T01:23:48.176Z,7.95
2018-09-25T01:26:22.868Z,7.84
2018-09-25T01:28:58.534Z,7.78
2018-09-25T01:31:32.748Z,7.91
2018-09-25T01:34:06.965Z,7.78
2018-09-25T01:36:42.163Z,7.65
2018-09-25T01:39:16.582Z,7.59
2018-09-25T01:41:50.903Z,7.49
2018-09-25T01:44:25.011Z,7.47
2018-09-25T01:46:59.923Z,7.44
2018-09-25T01:49:34.153Z,7.36
2018-09-25T01:52:08.649Z,7.44
2018-09-25T01:54:43.298Z,7.43
2018-09-25T01:57:17.772Z,7.47
2018-09-25T01:59:51.751Z,7.51
2018-09-25T02:02:25.877Z,7.44
2018-09-25T02:05:00.063Z,7.50
2018-09-25T02:07:34.047Z,7.45
2018-09-25T02:10:08.397Z,7.45
2018-09-25T02:12:43.210Z,7.36
2018-09-25T02:15:17.753Z,7.43
2018-09-25T02:17:52.167Z,7.32
2018-09-25T02:20:26.452Z,7.31
2018-09-25T02:23:00.635Z,7.28
2018-09-25T02:25:35.017Z,7.21
2018-09-25T02:28:09.302Z,7.30
2018-09-25T02:30:43.899Z,7.34
2018-09-25T02:33:18.156Z,7.33
2018-09-25T02:35:52.568Z,7.17
2018-09-25T02:38:27.152Z,7.01
2018-09-25T02:41:01.639Z,7.06
2018-09-25T02:43:36.770Z,7.10
2018-09-25T02:46:10.852Z,6.88
2018-09-25T02:48:45.009Z,6.94
2018-09-25T02:51:19.125Z,6.84
2018-09-25T02:53:53.629Z,6.86
2018-09-25T02:56:27.918Z,6.71
2018-09-25T02:59:02.298Z,6.71
2018-09-25T03:01:36.604Z,6.74
2018-09-25T03:04:10.892Z,6.79
2018-09-25T03:06:45.372Z,6.81
2018-09-25T03:09:19.640Z,6.73
2018-09-25T03:11:54.141Z,6.73
2018-09-25T03:14:28.601Z,6.81
2018-09-25T03:17:03.045Z,6.87
2018-09-25T03:19:37.163Z,6.90
2018-09-25T03:22:11.592Z,6.94
2018-09-25T03:24:45.952Z,6.92
2018-09-25T03:27:20.270Z,6.93
2018-09-25T03:29:54.760Z,6.92
2018-09-25T03:32:28.896Z,6.91
2018-09-25T03:35:03.450Z,6.92
2018-09-25T03:37:37.696Z,6.83
2018-09-25T03:40:11.864Z,6.93
2018-09-25T03:42:46.180Z,6.96
2018-09-25T03:45:20.655Z,6.91
2018-09-25T03:47:54.881Z,6.90
2018-09-25T03:50:28.969Z,6.94
2018-09-25T03:53:03.057Z,6.91
2018-09-25T03:55:37.403Z,6.88
2018-09-25T03:58:12.213Z,7.01
2018-09-25T04:00:46.347Z,6.78
2018-09-25T04:03:20.354Z,6.84
2018-09-25T04:05:54.858Z,6.66
2018-09-25T04:08:29.223Z,6.63
2018-09-25T04:11:03.262Z,6.75
2018-09-25T04:13:37.280Z,6.84
2018-09-25T04:16:11.811Z,6.83
2018-09-25T04:18:46.421Z,6.76
2018-09-25T04:21:20.768Z,6.67
2018-09-25T04:23:55.226Z,6.60
2018-09-25T04:26:29.802Z,6.48
2018-09-25T04:29:05.050Z,6.49
2018-09-25T04:31:39.547Z,6.50
2018-09-25T04:34:14.325Z,6.49
2018-09-25T04:36:49.192Z,6.46
2018-09-25T04:39:23.425Z,6.52
2018-09-25T04:41:57.706Z,6.55
2018-09-25T04:44:31.933Z,6.45
2018-09-25T04:47:06.470Z,6.57
2018-09-25T04:49:40.852Z,6.54
2018-09-25T04:52:15.616Z,6.53
2018-09-25T04:54:50.164Z,6.61
2018-09-25T04:57:24.648Z,6.59
2018-09-25T04:59:59.039Z,6.59
2018-09-25T05:02:33.649Z,6.68
2018-09-25T05:05:09.556Z,6.67
2018-09-25T05:07:43.770Z,6.69
2018-09-25T05:10:17.962Z,6.76
2018-09-25T05:12:53.428Z,6.77
2018-09-25T05:15:27.871Z,6.75
2018-09-25T05:18:02.341Z,6.72
2018-09-25T05:20:37.087Z,6.75
2018-09-25T05:23:11.624Z,6.76
2018-09-25T05:25:46.269Z,6.76
2018-09-25T05:28:20.956Z,6.78
2018-09-25T05:30:55.784Z,6.84
2018-09-25T05:33:31.226Z,6.84
2018-09-25T05:36:05.424Z,6.85
2018-09-25T05:38:39.544Z,6.80
2018-09-25T05:41:13.923Z,6.76
2018-09-25T05:43:49.231Z,6.77
2018-09-25T05:46:24.064Z,6.78
2018-09-25T05:48:58.583Z,6.86
2018-09-25T05:51:34.098Z,6.91
2018-09-25T05:54:08.465Z,6.88
2018-09-25T05:56:42.790Z,6.89
2018-09-25T05:59:22.951Z,6.95
2018-09-25T06:01:59.646Z,6.98
2018-09-25T06:04:34.216Z,6.93
2018-09-25T06:07:08.722Z,6.96
2018-09-25T06:09:44.040Z,6.93
2018-09-25T06:12:18.341Z,6.98
2018-09-25T06:14:52.515Z,7.00
2018-09-25T06:17:27.281Z,7.01
2018-09-25T06:20:01.751Z,7.04
2018-09-25T06:22:37.308Z,7.05
2018-09-25T06:25:13.513Z,7.13
2018-09-25T06:27:47.759Z,7.06
2018-09-25T06:30:22.946Z,7.11
2018-09-25T06:32:57.206Z,7.20
2018-09-25T06:35:31.637Z,7.23
2018-09-25T06:38:07.271Z,7.24
2018-09-25T06:40:41.736Z,7.29
2018-09-25T06:43:16.176Z,7.36
2018-09-25T06:45:52.047Z,7.30
2018-09-25T06:48:26.407Z,7.28
2018-09-25T06:51:00.913Z,7.32
2018-09-25T06:53:35.421Z,7.29
2018-09-25T06:56:09.972Z,7.36
2018-09-25T06:58:44.317Z,7.35
2018-09-25T07:01:18.922Z,7.33
2018-09-25T07:03:53.452Z,7.43
2018-09-25T07:06:27.976Z,7.42
2018-09-25T07:09:02.576Z,7.47
2018-09-25T07:11:36.908Z,7.36
2018-09-25T07:14:11.233Z,7.34
2018-09-25T07:16:46.538Z,7.22
2018-09-25T07:19:21.577Z,7.14
2018-09-25T07:21:55.978Z,7.02
2018-09-25T07:24:31.160Z,7.08
2018-09-25T07:27:05.595Z,7.25
2018-09-25T07:29:40.076Z,7.28
2018-09-25T07:32:14.642Z,7.31
2018-09-25T07:34:48.957Z,7.30
2018-09-25T07:37:24.675Z,7.30
2018-09-25T07:39:58.772Z,7.38
2018-09-25T07:42:33.210Z,7.52
2018-09-25T07:45:07.554Z,7.61
2018-09-25T07:47:42.477Z,7.67
2018-09-25T07:50:16.831Z,7.82
2018-09-25T07:52:51.295Z,7.87
2018-09-25T07:55:25.890Z,8.03
2018-09-25T07:58:00.363Z,8.29
2018-09-25T08:00:34.940Z,8.39
2018-09-25T08:03:09.355Z,8.62
2018-09-25T08:05:43.861Z,8.99
2018-09-25T08:08:18.180Z,9.05
2018-09-25T08:10:52.578Z,9.35
2018-09-25T08:13:26.839Z,9.24
2018-09-25T08:16:01.682Z,9.03
2018-09-25T08:18:36.037Z,8.96
2018-09-25T08:21:10.517Z,9.18
2018-09-25T08:23:44.890Z,9.29
2018-09-25T08:26:19.340Z,9.52
2018-09-25T08:28:53.812Z,9.77
2018-09-25T08:31:28.348Z,9.65
2018-09-25T08:34:03.103Z,9.56
2018-09-25T08:36:37.812Z,9.46
2018-09-25T08:39:14.878Z,9.46
2018-09-25T08:41:49.407Z,9.53
2018-09-25T08:44:23.901Z,9.42
2018-09-25T08:46:58.695Z,9.40
2018-09-25T08:49:33.353Z,9.67
2018-09-25T08:52:07.681Z,10.11
2018-09-25T08:54:42.684Z,10.02
2018-09-25T08:57:17.547Z,10.11
2018-09-25T08:59:52.194Z,10.45
2018-09-25T09:02:27.207Z,11.61
2018-09-25T09:05:01.875Z,11.29
2018-09-25T09:07:37.005Z,11.84
2018-09-25T09:10:11.705Z,12.03
2018-09-25T09:12:46.774Z,12.75
2018-09-25T09:15:22.407Z,13.09
2018-09-25T09:17:57.907Z,13.25
2018-09-25T09:20:32.929Z,13.47
2018-09-25T09:23:07.342Z,12.96
2018-09-25T09:25:42.684Z,11.78
2018-09-25T09:28:17.575Z,12.13
2018-09-25T09:30:52.266Z,12.61
2018-09-25T09:33:27.420Z,13.02
2018-09-25T09:36:02.022Z,13.15
2018-09-25T09:38:36.597Z,12.80
2018-09-25T09:41:11.470Z,12.92
2018-09-25T09:43:46.085Z,11.92
2018-09-25T09:46:21.066Z,11.88
2018-09-25T09:48:55.614Z,12.29
2018-09-25T09:51:31.343Z,12.68
2018-09-25T09:54:06.955Z,12.80
2018-09-25T09:56:42.199Z,12.49
2018-09-25T09:59:17.121Z,12.63
2018-09-25T10:01:55.044Z,12.30
2018-09-25T10:04:32.308Z,12.68
2018-09-25T10:07:06.740Z,13.12
2018-09-25T10:09:41.125Z,12.98
2018-09-25T10:12:16.311Z,13.12
2018-09-25T10:14:52.215Z,13.26
2018-09-25T10:17:27.215Z,12.73
2018-09-25T10:20:03.468Z,12.76
2018-09-25T10:22:44.965Z,12.60
2018-09-25T10:25:19.590Z,12.41
2018-09-25T10:27:54.191Z,12.07
2018-09-25T10:30:28.518Z,12.43
2018-09-25T10:33:03.119Z,12.78
2018-09-25T10:35:38.884Z,12.95
2018-09-25T10:38:14.219Z,12.72
2018-09-25T10:40:48.973Z,12.37
2018-09-25T10:43:24.821Z,12.46
2018-09-25T10:45:59.526Z,12.76
2018-09-25T10:48:33.994Z,13.47
2018-09-25T10:51:08.643Z,13.46
2018-09-25T10:53:43.801Z,13.51
2018-09-25T10:56:19.191Z,13.39
2018-09-25T10:58:54.141Z,13.20
2018-09-25T11:01:28.399Z,13.03
2018-09-25T11:04:02.493Z,13.12
2018-09-25T11:06:36.540Z,13.13
2018-09-25T11:09:13.882Z,13.49
2018-09-25T11:11:48.531Z,12.82
2018-09-25T11:14:22.730Z,13.41
2018-09-25T11:16:56.624Z,14.23
2018-09-25T11:19:30.692Z,13.06
2018-09-25T11:22:04.819Z,13.75
2018-09-25T11:24:38.879Z,14.25
2018-09-25T11:27:12.968Z,13.33
2018-09-25T11:29:47.144Z,13.83
2018-09-25T11:32:21.031Z,13.79
2018-09-25T11:35:02.275Z,14.19
2018-09-25T11:37:36.278Z,14.72
2018-09-25T11:40:10.390Z,14.75
2018-09-25T11:42:44.518Z,13.52
2018-09-25T11:45:18.737Z,13.67
2018-09-25T11:47:52.718Z,14.04
2018-09-25T11:50:26.721Z,14.31
2018-09-25T11:53:01.286Z,14.57
2018-09-25T11:55:35.291Z,14.76
2018-09-25T11:58:09.342Z,14.50
2018-09-25T12:00:43.448Z,14.36
2018-09-25T12:03:17.848Z,14.61
2018-09-25T12:05:51.952Z,14.35
2018-09-25T12:08:26.120Z,14.41
2018-09-25T12:11:00.225Z,14.25
2018-09-25T12:13:35.091Z,14.24
2018-09-25T12:16:09.207Z,14.47
2018-09-25T12:18:43.406Z,15.23
2018-09-25T12:21:17.766Z,14.68
2018-09-25T12:23:51.823Z,13.84
2018-09-25T12:26:25.959Z,13.79
2018-09-25T12:29:00.113Z,13.75
2018-09-25T12:31:34.312Z,14.49
2018-09-25T12:34:08.423Z,14.81
2018-09-25T12:36:42.566Z,15.04
2018-09-25T12:39:16.786Z,15.00
2018-09-25T12:41:50.887Z,15.74
2018-09-25T12:44:25.055Z,15.48
2018-09-25T12:46:59.228Z,15.44
2018-09-25T12:49:35.645Z,14.92
2018-09-25T12:52:09.713Z,14.50
2018-09-25T12:54:45.018Z,14.49
2018-09-25T12:57:19.209Z,14.65
2018-09-25T12:59:53.365Z,14.72
2018-09-25T13:02:27.655Z,14.85
2018-09-25T13:05:01.873Z,14.12
2018-09-25T13:07:36.258Z,13.90
2018-09-25T13:10:10.803Z,14.33
2018-09-25T13:12:45.202Z,14.39
2018-09-25T13:15:19.428Z,13.56
2018-09-25T13:17:53.875Z,14.02
2018-09-25T13:20:28.012Z,13.76
2018-09-25T13:23:02.175Z,14.61
2018-09-25T13:25:36.187Z,14.09
2018-09-25T13:28:10.236Z,13.80
2018-09-25T13:30:44.421Z,14.16
2018-09-25T13:33:18.628Z,14.59
2018-09-25T13:35:52.766Z,14.64
2018-09-25T13:38:26.894Z,14.52
2018-09-25T13:41:00.931Z,14.02
2018-09-25T13:43:35.158Z,14.19
2018-09-25T13:46:09.120Z,14.25
2018-09-25T13:48:43.960Z,14.34
2018-09-25T13:51:18.679Z,14.70
2018-09-25T13:53:52.928Z,14.49
2018-09-25T13:56:27.169Z,13.88
2018-09-25T13:59:04.669Z,14.05
2018-09-25T14:01:38.874Z,14.03
2018-09-25T14:04:13.037Z,13.59
2018-09-25T14:06:47.146Z,12.98
2018-09-25T14:09:21.216Z,12.68
2018-09-25T14:11:55.554Z,12.61
2018-09-25T14:14:29.699Z,12.31
2018-09-25T14:17:03.908Z,12.23
2018-09-25T14:19:38.302Z,12.22
2018-09-25T14:22:12.923Z,12.21
2018-09-25T14:24:47.168Z,11.98
2018-09-25T14:27:21.616Z,12.08
2018-09-25T14:29:55.692Z,12.09
2018-09-25T14:32:29.900Z,11.74
2018-09-25T14:35:04.007Z,11.89
2018-09-25T14:37:38.003Z,11.81
2018-09-25T14:40:11.988Z,12.03
2018-09-25T14:42:46.068Z,11.73
2018-09-25T14:45:20.163Z,11.85
2018-09-25T14:47:54.297Z,12.15
2018-09-25T14:50:28.505Z,12.33
2018-09-25T14:53:02.601Z,12.32
2018-09-25T14:55:36.851Z,12.30
2018-09-25T14:58:11.152Z,12.25
2018-09-25T15:00:45.430Z,12.47
2018-09-25T15:03:19.820Z,12.27
2018-09-25T15:05:54.243Z,12.42
2018-09-25T15:08:28.523Z,12.02
2018-09-25T15:11:02.779Z,12.20
2018-09-25T15:13:36.967Z,11.98
2018-09-25T15:16:11.110Z,11.81
2018-09-25T15:18:45.192Z,11.64
2018-09-25T15:21:21.645Z,11.45
2018-09-25T15:23:55.745Z,11.20
2018-09-25T15:26:29.990Z,11.02
2018-09-25T15:29:04.045Z,11.04
2018-09-25T15:31:38.205Z,11.03
2018-09-25T15:34:12.313Z,11.00
2018-09-25T15:36:46.520Z,11.00
2018-09-25T15:39:20.776Z,11.02
2018-09-25T15:41:54.976Z,10.93
2018-09-25T15:44:29.121Z,10.86
2018-09-25T15:47:03.126Z,10.93
2018-09-25T15:49:37.277Z,10.95
2018-09-25T15:52:11.937Z,10.94
2018-09-25T15:54:46.198Z,10.98
2018-09-25T15:57:20.309Z,10.80
2018-09-25T15:59:54.475Z,10.72
2018-09-25T16:02:28.497Z,10.82
2018-09-25T16:05:02.521Z,10.52
2018-09-25T16:07:36.595Z,10.55
2018-09-25T16:10:10.856Z,10.63
2018-09-25T16:12:44.966Z,10.55
2018-09-25T16:15:19.922Z,10.50
2018-09-25T16:17:54.004Z,10.20
2018-09-25T16:20:29.079Z,10.12
2018-09-25T16:23:03.180Z,10.01
2018-09-25T16:25:37.373Z,10.03
2018-09-25T16:28:11.895Z,9.62
2018-09-25T16:30:46.243Z,9.61
2018-09-25T16:33:20.450Z,9.52
2018-09-25T16:35:55.798Z,9.41
2018-09-25T16:38:30.215Z,9.29
2018-09-25T16:41:04.383Z,9.14
2018-09-25T16:43:39.121Z,8.89
2018-09-25T16:46:13.359Z,8.78
2018-09-25T16:48:47.593Z,8.54
2018-09-25T16:51:21.749Z,8.71
2018-09-25T16:53:56.025Z,8.58
2018-09-25T16:56:30.300Z,8.48
2018-09-25T16:59:04.441Z,8.49
2018-09-25T17:01:38.560Z,8.44
2018-09-25T17:04:12.647Z,8.43
2018-09-25T17:06:47.728Z,8.17
2018-09-25T17:09:21.777Z,8.16
2018-09-25T17:11:58.022Z,7.97
2018-09-25T17:14:32.416Z,7.90
2018-09-25T17:17:06.785Z,7.87
2018-09-25T17:19:40.900Z,7.74
2018-09-25T17:22:15.482Z,7.77
2018-09-25T17:24:50.195Z,7.80
2018-09-25T17:27:24.419Z,7.72
2018-09-25T17:29:59.152Z,7.55
2018-09-25T17:32:33.544Z,7.52
2018-09-25T17:35:07.948Z,7.53
2018-09-25T17:37:43.009Z,7.25
2018-09-25T17:40:17.593Z,7.39
2018-09-25T17:42:52.295Z,7.32
2018-09-25T17:45:26.793Z,7.22
2018-09-25T17:48:01.557Z,7.02
2018-09-25T17:50:35.787Z,7.05
2018-09-25T17:53:11.228Z,6.93
2018-09-25T17:55:45.608Z,7.14
2018-09-25T17:58:20.031Z,7.04
2018-09-25T18:00:54.056Z,7.08
2018-09-25T18:03:28.554Z,7.00
2018-09-25T18:06:02.864Z,6.88
2018-09-25T18:08:37.120Z,6.81
2018-09-25T18:11:11.481Z,6.70
2018-09-25T18:13:46.431Z,6.66
2018-09-25T18:16:20.829Z,6.56
2018-09-25T18:18:55.718Z,6.56
2018-09-25T18:21:30.197Z,6.56
2018-09-25T18:24:05.314Z,6.48
2018-09-25T18:26:40.543Z,6.38
2018-09-25T18:29:15.712Z,6.34
2018-09-25T18:31:50.877Z,6.29
2018-09-25T18:34:25.470Z,6.24
2018-09-25T18:37:03.064Z,6.04
2018-09-25T18:39:37.451Z,5.97
2018-09-25T18:42:12.616Z,6.02
2018-09-25T18:44:48.629Z,6.11
2018-09-25T18:47:26.049Z,5.98
2018-09-25T18:50:01.722Z,5.91
2018-09-25T18:52:36.009Z,5.88
2018-09-25T18:55:10.490Z,5.81
2018-09-25T18:57:46.264Z,5.46
2018-09-25T19:00:20.518Z,5.36
2018-09-25T19:02:54.958Z,5.34
2018-09-25T19:05:29.289Z,5.54
2018-09-25T19:08:03.757Z,5.60
2018-09-25T19:10:37.990Z,5.62
2018-09-25T19:13:12.297Z,5.51
2018-09-25T19:15:47.948Z,5.60
2018-09-25T19:18:23.533Z,5.67
2018-09-25T19:20:58.240Z,5.53
2018-09-25T19:23:34.605Z,5.37
2018-09-25T19:26:09.198Z,5.48
2018-09-25T19:28:44.555Z,5.46
2018-09-25T19:31:19.990Z,5.44
2018-09-25T19:33:54.905Z,5.40
2018-09-25T19:36:29.621Z,5.47
2018-09-25T19:39:03.888Z,5.36
2018-09-25T19:41:38.558Z,5.18
2018-09-25T19:44:12.848Z,5.18
2018-09-25T19:46:47.022Z,5.20
2018-09-25T19:49:21.216Z,5.07
2018-09-25T19:51:56.128Z,5.00
2018-09-25T19:54:30.329Z,4.95
2018-09-25T19:57:05.292Z,4.71
2018-09-25T19:59:39.714Z,4.61
2018-09-25T20:02:13.725Z,4.77
2018-09-25T20:04:48.027Z,4.75
2018-09-25T20:07:22.623Z,4.66
2018-09-25T20:09:58.226Z,4.68
2018-09-25T20:12:32.689Z,4.55
2018-09-25T20:15:06.740Z,4.54
2018-09-25T20:17:40.930Z,4.57
2018-09-25T20:20:15.071Z,4.38
2018-09-25T20:22:49.568Z,4.19
2018-09-25T20:25:23.687Z,4.24
2018-09-25T20:27:58.100Z,4.47
2018-09-25T20:30:32.250Z,4.42
2018-09-25T20:33:06.228Z,4.30
2018-09-25T20:35:40.321Z,4.12
2018-09-25T20:38:14.334Z,4.01
2018-09-25T20:40:48.379Z,4.23
2018-09-25T20:43:22.634Z,4.15
2018-09-25T20:45:56.685Z,4.30
2018-09-25T20:48:31.696Z,4.22
2018-09-25T20:51:05.682Z,4.21
2018-09-25T20:53:39.866Z,4.16
2018-09-25T20:56:14.671Z,4.16
2018-09-25T20:58:48.935Z,3.93
2018-09-25T21:01:23.037Z,4.02
2018-09-25T21:03:57.120Z,3.93
2018-09-25T21:06:31.395Z,3.97
2018-09-25T21:09:05.559Z,3.81
2018-09-25T21:11:39.610Z,3.81
2018-09-25T21:14:13.860Z,3.89
2018-09-25T21:16:49.010Z,3.91
2018-09-25T21:19:23.138Z,3.73
2018-09-25T21:21:57.162Z,3.71
2018-09-25T21:24:31.158Z,3.79
2018-09-25T21:27:05.235Z,3.75
2018-09-25T21:29:39.290Z,3.75
2018-09-25T21:32:13.405Z,3.59
2018-09-25T21:34:47.533Z,3.74
2018-09-25T21:37:21.610Z,3.62
2018-09-25T21:39:55.953Z,3.66
2018-09-25T21:42:29.986Z,3.65
2018-09-25T21:45:04.039Z,3.57
2018-09-25T21:47:38.029Z,3.57
2018-09-25T21:50:12.235Z,3.64
2018-09-25T21:52:46.342Z,3.49
2018-09-25T21:55:20.488Z,3.35
2018-09-25T21:57:54.538Z,3.37
2018-09-25T22:00:28.481Z,3.35
2018-09-25T22:03:02.672Z,3.54
2018-09-25T22:05:36.826Z,3.42
2018-09-25T22:08:10.905Z,3.43
2018-09-25T22:10:45.081Z,3.30
2018-09-25T22:13:19.297Z,3.27
2018-09-25T22:15:53.499Z,3.36
2018-09-25T22:18:27.610Z,3.39
2018-09-25T22:21:01.622Z,3.13
2018-09-25T22:23:35.667Z,3.15
2018-09-25T22:26:09.736Z,3.17
2018-09-25T22:28:43.778Z,3.00
2018-09-25T22:31:17.982Z,2.96
2018-09-25T22:33:52.801Z,2.82
2018-09-25T22:36:28.753Z,2.83
2018-09-25T22:39:02.865Z,2.91
2018-09-25T22:41:37.416Z,2.85
2018-09-25T22:44:11.507Z,2.84
2018-09-25T22:46:45.486Z,2.83
2018-09-25T22:49:20.202Z,2.73
2018-09-25T22:51:54.456Z,2.62
2018-09-25T22:54:28.976Z,2.62
2018-09-25T22:57:03.499Z,2.69
2018-09-25T22:59:38.324Z,2.77
2018-09-25T23:02:12.723Z,2.66
2018-09-25T23:04:47.084Z,2.74
2018-09-25T23:07:21.370Z,2.72
2018-09-25T23:09:55.753Z,2.73
2018-09-25T23:12:29.977Z,2.70
2018-09-25T23:15:04.468Z,2.74
2018-09-25T23:17:38.766Z,2.64
2018-09-25T23:20:13.008Z,2.59
2018-09-25T23:22:47.245Z,2.51
2018-09-25T23:25:21.627Z,2.48
2018-09-25T23:27:56.126Z,2.57
2018-09-25T23:30:30.209Z,2.55
2018-09-25T23:33:04.527Z,2.58
2018-09-25T23:35:38.473Z,2.41
2018-09-25T23:38:12.692Z,2.43
2018-09-25T23:40:48.649Z,2.43
2018-09-25T23:43:33.679Z,2.52
2018-09-25T23:46:13.173Z,2.44
2018-09-25T23:48:47.015Z,2.38
2018-09-25T23:53:23.820Z,2.43
2018-09-25T23:56:25.612Z,2.36
2018-09-25T23:59:03.965Z,2.32
